sensor_id;sensor_type;location;lat;lon;timestamp;temperature;humidity
24260;DHT22;12384;48.112;18.418;2023-05-14T00:01:48;10.60;80.40
24260;DHT22;12384;48.112;18.418;2023-05-14T00:04:18;10.60;80.40
24260;DHT22;12384;48.112;18.418;2023-05-14T00:06:47;10.60;80.40
24260;DHT22;12384;48.112;18.418;2023-05-14T00:09:16;10.60;80.40
24260;DHT22;12384;48.112;18.418;2023-05-14T00:11:44;10.60;80.50
24260;DHT22;12384;48.112;18.418;2023-05-14T00:14:13;10.50;80.40
24260;DHT22;12384;48.112;18.418;2023-05-14T00:16:41;10.50;80.50
24260;DHT22;12384;48.112;18.418;2023-05-14T00:19:10;10.50;80.50
24260;DHT22;12384;48.112;18.418;2023-05-14T00:21:38;10.50;80.50
24260;DHT22;12384;48.112;18.418;2023-05-14T00:24:08;10.50;80.60
24260;DHT22;12384;48.112;18.418;2023-05-14T00:26:37;10.50;80.60
24260;DHT22;12384;48.112;18.418;2023-05-14T00:29:05;10.50;80.70
24260;DHT22;12384;48.112;18.418;2023-05-14T00:31:34;10.50;80.80
24260;DHT22;12384;48.112;18.418;2023-05-14T00:34:02;10.50;81.80
24260;DHT22;12384;48.112;18.418;2023-05-14T00:36:31;10.40;81.10
24260;DHT22;12384;48.112;18.418;2023-05-14T00:38:59;10.40;81.30
24260;DHT22;12384;48.112;18.418;2023-05-14T00:41:29;10.40;82.30
24260;DHT22;12384;48.112;18.418;2023-05-14T00:43:58;10.40;81.70
24260;DHT22;12384;48.112;18.418;2023-05-14T00:46:26;10.40;82.00
24260;DHT22;12384;48.112;18.418;2023-05-14T00:48:56;10.40;82.20
24260;DHT22;12384;48.112;18.418;2023-05-14T00:51:24;10.30;82.50
24260;DHT22;12384;48.112;18.418;2023-05-14T00:53:54;10.30;82.60
24260;DHT22;12384;48.112;18.418;2023-05-14T00:56:22;10.30;82.90
24260;DHT22;12384;48.112;18.418;2023-05-14T00:58:53;10.30;83.20
24260;DHT22;12384;48.112;18.418;2023-05-14T01:01:21;10.30;83.60
24260;DHT22;12384;48.112;18.418;2023-05-14T01:03:50;10.30;84.00
24260;DHT22;12384;48.112;18.418;2023-05-14T01:06:25;10.30;84.30
24260;DHT22;12384;48.112;18.418;2023-05-14T01:09:00;10.30;84.70
24260;DHT22;12384;48.112;18.418;2023-05-14T01:11:35;10.30;84.90
24260;DHT22;12384;48.112;18.418;2023-05-14T01:14:16;10.30;85.20
24260;DHT22;12384;48.112;18.418;2023-05-14T01:16:51;10.20;85.40
24260;DHT22;12384;48.112;18.418;2023-05-14T01:19:27;10.20;85.60
24260;DHT22;12384;48.112;18.418;2023-05-14T01:21:58;10.20;85.80
24260;DHT22;12384;48.112;18.418;2023-05-14T01:24:26;10.20;86.00
24260;DHT22;12384;48.112;18.418;2023-05-14T01:27:00;10.20;86.30
24260;DHT22;12384;48.112;18.418;2023-05-14T01:29:29;10.10;86.50
24260;DHT22;12384;48.112;18.418;2023-05-14T01:32:03;10.10;86.80
24260;DHT22;12384;48.112;18.418;2023-05-14T01:34:35;10.10;87.10
24260;DHT22;12384;48.112;18.418;2023-05-14T01:37:07;10.10;88.20
24260;DHT22;12384;48.112;18.418;2023-05-14T01:39:37;10.10;87.90
24260;DHT22;12384;48.112;18.418;2023-05-14T01:42:07;10.00;88.20
24260;DHT22;12384;48.112;18.418;2023-05-14T01:44:36;10.00;88.60
24260;DHT22;12384;48.112;18.418;2023-05-14T01:47:05;10.00;89.10
24260;DHT22;12384;48.112;18.418;2023-05-14T01:49:33;10.00;89.60
24260;DHT22;12384;48.112;18.418;2023-05-14T01:52:03;9.90;90.60
24260;DHT22;12384;48.112;18.418;2023-05-14T01:54:33;9.90;90.90
24260;DHT22;12384;48.112;18.418;2023-05-14T01:57:02;9.90;91.20
24260;DHT22;12384;48.112;18.418;2023-05-14T01:59:30;9.80;91.40
24260;DHT22;12384;48.112;18.418;2023-05-14T02:01:59;9.80;91.70
24260;DHT22;12384;48.112;18.418;2023-05-14T02:04:27;9.80;92.00
24260;DHT22;12384;48.112;18.418;2023-05-14T02:06:55;9.80;92.30
24260;DHT22;12384;48.112;18.418;2023-05-14T02:09:24;9.70;92.50
24260;DHT22;12384;48.112;18.418;2023-05-14T02:11:54;9.70;92.90
24260;DHT22;12384;48.112;18.418;2023-05-14T02:14:22;9.70;93.30
24260;DHT22;12384;48.112;18.418;2023-05-14T02:16:50;9.70;93.60
24260;DHT22;12384;48.112;18.418;2023-05-14T02:19:19;9.70;94.30
24260;DHT22;12384;48.112;18.418;2023-05-14T02:21:49;9.70;94.20
24260;DHT22;12384;48.112;18.418;2023-05-14T02:24:17;9.70;94.50
24260;DHT22;12384;48.112;18.418;2023-05-14T02:26:46;9.70;94.70
24260;DHT22;12384;48.112;18.418;2023-05-14T02:29:16;9.70;94.90
24260;DHT22;12384;48.112;18.418;2023-05-14T02:31:44;9.70;95.00
24260;DHT22;12384;48.112;18.418;2023-05-14T02:34:12;9.70;95.20
24260;DHT22;12384;48.112;18.418;2023-05-14T02:36:41;9.70;95.30
24260;DHT22;12384;48.112;18.418;2023-05-14T02:39:10;9.70;95.40
24260;DHT22;12384;48.112;18.418;2023-05-14T02:41:38;9.70;95.60
24260;DHT22;12384;48.112;18.418;2023-05-14T02:44:06;9.60;95.80
24260;DHT22;12384;48.112;18.418;2023-05-14T02:46:36;9.70;96.10
24260;DHT22;12384;48.112;18.418;2023-05-14T02:49:05;9.70;96.40
24260;DHT22;12384;48.112;18.418;2023-05-14T02:51:33;9.70;96.70
24260;DHT22;12384;48.112;18.418;2023-05-14T02:54:02;9.70;96.90
24260;DHT22;12384;48.112;18.418;2023-05-14T02:56:31;9.70;97.30
24260;DHT22;12384;48.112;18.418;2023-05-14T02:59:00;9.70;97.50
24260;DHT22;12384;48.112;18.418;2023-05-14T03:01:29;9.80;97.70
24260;DHT22;12384;48.112;18.418;2023-05-14T03:03:59;9.80;97.90
24260;DHT22;12384;48.112;18.418;2023-05-14T03:06:28;9.80;98.10
24260;DHT22;12384;48.112;18.418;2023-05-14T03:08:57;9.80;98.10
24260;DHT22;12384;48.112;18.418;2023-05-14T03:11:25;9.90;98.20
24260;DHT22;12384;48.112;18.418;2023-05-14T03:13:54;9.90;98.30
24260;DHT22;12384;48.112;18.418;2023-05-14T03:16:22;9.90;98.40
24260;DHT22;12384;48.112;18.418;2023-05-14T03:18:51;9.90;98.40
24260;DHT22;12384;48.112;18.418;2023-05-14T03:21:20;9.90;98.50
24260;DHT22;12384;48.112;18.418;2023-05-14T03:23:49;9.90;98.60
24260;DHT22;12384;48.112;18.418;2023-05-14T03:26:17;10.00;98.30
24260;DHT22;12384;48.112;18.418;2023-05-14T03:28:50;10.00;98.40
24260;DHT22;12384;48.112;18.418;2023-05-14T03:31:19;10.00;98.40
24260;DHT22;12384;48.112;18.418;2023-05-14T03:33:47;10.00;98.50
24260;DHT22;12384;48.112;18.418;2023-05-14T03:36:16;10.00;98.50
24260;DHT22;12384;48.112;18.418;2023-05-14T03:38:48;10.00;98.50
24260;DHT22;12384;48.112;18.418;2023-05-14T03:41:16;10.10;98.60
24260;DHT22;12384;48.112;18.418;2023-05-14T03:43:46;10.10;98.60
24260;DHT22;12384;48.112;18.418;2023-05-14T03:46:14;10.10;98.50
24260;DHT22;12384;48.112;18.418;2023-05-14T03:48:43;10.10;98.40
24260;DHT22;12384;48.112;18.418;2023-05-14T03:51:11;10.20;98.50
24260;DHT22;12384;48.112;18.418;2023-05-14T03:53:40;10.20;98.40
24260;DHT22;12384;48.112;18.418;2023-05-14T03:56:10;10.20;98.40
24260;DHT22;12384;48.112;18.418;2023-05-14T03:58:38;10.20;98.30
24260;DHT22;12384;48.112;18.418;2023-05-14T04:01:07;10.20;98.20
24260;DHT22;12384;48.112;18.418;2023-05-14T04:03:35;10.30;98.20
24260;DHT22;12384;48.112;18.418;2023-05-14T04:06:04;10.30;98.10
24260;DHT22;12384;48.112;18.418;2023-05-14T04:08:33;10.30;98.10
24260;DHT22;12384;48.112;18.418;2023-05-14T04:11:02;10.30;98.00
24260;DHT22;12384;48.112;18.418;2023-05-14T04:13:31;10.30;98.20
24260;DHT22;12384;48.112;18.418;2023-05-14T04:16:00;10.30;97.80
24260;DHT22;12384;48.112;18.418;2023-05-14T04:18:28;10.30;97.70
24260;DHT22;12384;48.112;18.418;2023-05-14T04:21:01;10.40;97.70
24260;DHT22;12384;48.112;18.418;2023-05-14T04:23:30;10.40;97.80
24260;DHT22;12384;48.112;18.418;2023-05-14T04:25:58;10.40;97.80
24260;DHT22;12384;48.112;18.418;2023-05-14T04:28:27;10.40;97.90
24260;DHT22;12384;48.112;18.418;2023-05-14T04:30:57;10.40;98.00
24260;DHT22;12384;48.112;18.418;2023-05-14T04:33:25;10.40;98.20
24260;DHT22;12384;48.112;18.418;2023-05-14T04:35:54;10.50;98.40
24260;DHT22;12384;48.112;18.418;2023-05-14T04:38:22;10.50;98.50
24260;DHT22;12384;48.112;18.418;2023-05-14T04:40:51;10.50;98.50
24260;DHT22;12384;48.112;18.418;2023-05-14T04:43:19;10.60;98.60
24260;DHT22;12384;48.112;18.418;2023-05-14T04:45:48;10.60;98.50
24260;DHT22;12384;48.112;18.418;2023-05-14T04:48:18;10.60;98.30
24260;DHT22;12384;48.112;18.418;2023-05-14T04:50:47;10.70;98.10
24260;DHT22;12384;48.112;18.418;2023-05-14T04:53:16;10.70;97.80
24260;DHT22;12384;48.112;18.418;2023-05-14T04:55:44;10.80;97.50
24260;DHT22;12384;48.112;18.418;2023-05-14T04:58:13;10.80;97.10
24260;DHT22;12384;48.112;18.418;2023-05-14T05:00:41;10.80;96.80
24260;DHT22;12384;48.112;18.418;2023-05-14T05:03:09;10.80;96.50
24260;DHT22;12384;48.112;18.418;2023-05-14T05:05:40;10.80;96.40
24260;DHT22;12384;48.112;18.418;2023-05-14T05:08:08;10.80;96.40
24260;DHT22;12384;48.112;18.418;2023-05-14T05:10:37;10.90;96.40
24260;DHT22;12384;48.112;18.418;2023-05-14T05:13:05;10.90;96.30
24260;DHT22;12384;48.112;18.418;2023-05-14T05:15:34;10.90;96.10
24260;DHT22;12384;48.112;18.418;2023-05-14T05:18:02;11.00;95.90
24260;DHT22;12384;48.112;18.418;2023-05-14T05:20:31;11.00;95.80
24260;DHT22;12384;48.112;18.418;2023-05-14T05:23:01;11.00;95.60
24260;DHT22;12384;48.112;18.418;2023-05-14T05:25:30;11.00;95.50
24260;DHT22;12384;48.112;18.418;2023-05-14T05:27:58;11.10;95.50
24260;DHT22;12384;48.112;18.418;2023-05-14T05:30:26;11.10;95.30
24260;DHT22;12384;48.112;18.418;2023-05-14T05:32:56;11.10;95.40
24260;DHT22;12384;48.112;18.418;2023-05-14T05:35:24;11.10;95.40
24260;DHT22;12384;48.112;18.418;2023-05-14T05:37:53;11.20;95.30
24260;DHT22;12384;48.112;18.418;2023-05-14T05:40:22;11.20;95.30
24260;DHT22;12384;48.112;18.418;2023-05-14T05:42:51;11.20;95.20
24260;DHT22;12384;48.112;18.418;2023-05-14T05:45:20;11.20;95.20
24260;DHT22;12384;48.112;18.418;2023-05-14T05:47:48;11.30;95.10
24260;DHT22;12384;48.112;18.418;2023-05-14T05:50:17;11.30;94.90
24260;DHT22;12384;48.112;18.418;2023-05-14T05:52:46;11.30;94.80
24260;DHT22;12384;48.112;18.418;2023-05-14T05:55:14;11.40;94.80
24260;DHT22;12384;48.112;18.418;2023-05-14T05:57:44;11.40;94.70
24260;DHT22;12384;48.112;18.418;2023-05-14T06:00:13;11.40;94.80
24260;DHT22;12384;48.112;18.418;2023-05-14T06:02:43;11.40;94.70
24260;DHT22;12384;48.112;18.418;2023-05-14T06:05:11;11.40;94.80
24260;DHT22;12384;48.112;18.418;2023-05-14T06:07:40;11.50;94.90
24260;DHT22;12384;48.112;18.418;2023-05-14T06:10:09;11.50;94.80
24260;DHT22;12384;48.112;18.418;2023-05-14T06:12:37;11.50;94.80
24260;DHT22;12384;48.112;18.418;2023-05-14T06:15:08;11.50;94.80
24260;DHT22;12384;48.112;18.418;2023-05-14T06:17:38;11.60;94.70
24260;DHT22;12384;48.112;18.418;2023-05-14T06:20:07;11.60;94.30
24260;DHT22;12384;48.112;18.418;2023-05-14T06:22:36;11.70;94.20
24260;DHT22;12384;48.112;18.418;2023-05-14T06:25:05;11.70;94.10
24260;DHT22;12384;48.112;18.418;2023-05-14T06:27:34;11.70;93.90
24260;DHT22;12384;48.112;18.418;2023-05-14T06:30:02;11.80;93.70
24260;DHT22;12384;48.112;18.418;2023-05-14T06:32:32;11.80;93.30
24260;DHT22;12384;48.112;18.418;2023-05-14T06:35:01;11.80;93.00
24260;DHT22;12384;48.112;18.418;2023-05-14T06:37:30;11.90;92.70
24260;DHT22;12384;48.112;18.418;2023-05-14T06:39:59;11.90;92.50
24260;DHT22;12384;48.112;18.418;2023-05-14T06:42:27;11.90;92.20
24260;DHT22;12384;48.112;18.418;2023-05-14T06:44:57;11.90;92.00
24260;DHT22;12384;48.112;18.418;2023-05-14T06:47:25;12.00;92.10
24260;DHT22;12384;48.112;18.418;2023-05-14T06:49:55;12.00;92.20
24260;DHT22;12384;48.112;18.418;2023-05-14T06:52:25;12.00;92.10
24260;DHT22;12384;48.112;18.418;2023-05-14T06:54:53;12.00;92.20
24260;DHT22;12384;48.112;18.418;2023-05-14T06:57:22;12.10;92.40
24260;DHT22;12384;48.112;18.418;2023-05-14T06:59:50;12.10;92.50
24260;DHT22;12384;48.112;18.418;2023-05-14T07:02:19;12.20;92.70
24260;DHT22;12384;48.112;18.418;2023-05-14T07:04:47;12.20;92.70
24260;DHT22;12384;48.112;18.418;2023-05-14T07:07:17;12.30;92.40
24260;DHT22;12384;48.112;18.418;2023-05-14T07:09:47;12.40;92.20
24260;DHT22;12384;48.112;18.418;2023-05-14T07:12:15;12.50;92.00
24260;DHT22;12384;48.112;18.418;2023-05-14T07:14:44;12.50;91.70
24260;DHT22;12384;48.112;18.418;2023-05-14T07:17:12;12.60;91.10
24260;DHT22;12384;48.112;18.418;2023-05-14T07:19:41;12.70;90.30
24260;DHT22;12384;48.112;18.418;2023-05-14T07:22:09;12.70;89.30
24260;DHT22;12384;48.112;18.418;2023-05-14T07:24:39;12.70;87.90
24260;DHT22;12384;48.112;18.418;2023-05-14T07:27:08;12.80;87.40
24260;DHT22;12384;48.112;18.418;2023-05-14T07:29:36;12.80;86.90
24260;DHT22;12384;48.112;18.418;2023-05-14T07:32:05;12.90;86.80
24260;DHT22;12384;48.112;18.418;2023-05-14T07:34:33;12.90;86.40
24260;DHT22;12384;48.112;18.418;2023-05-14T07:37:02;12.90;86.10
24260;DHT22;12384;48.112;18.418;2023-05-14T07:39:31;12.90;86.20
24260;DHT22;12384;48.112;18.418;2023-05-14T07:42:01;13.00;86.20
24260;DHT22;12384;48.112;18.418;2023-05-14T07:44:29;13.00;86.50
24260;DHT22;12384;48.112;18.418;2023-05-14T07:46:58;13.10;87.50
24260;DHT22;12384;48.112;18.418;2023-05-14T07:49:26;13.10;87.90
24260;DHT22;12384;48.112;18.418;2023-05-14T07:51:55;13.20;88.20
24260;DHT22;12384;48.112;18.418;2023-05-14T07:54:23;13.30;88.20
24260;DHT22;12384;48.112;18.418;2023-05-14T07:56:52;13.30;87.20
24260;DHT22;12384;48.112;18.418;2023-05-14T07:59:21;13.40;86.20
24260;DHT22;12384;48.112;18.418;2023-05-14T08:01:50;13.40;84.80
24260;DHT22;12384;48.112;18.418;2023-05-14T08:04:18;13.40;84.30
24260;DHT22;12384;48.112;18.418;2023-05-14T08:06:49;13.50;84.40
24260;DHT22;12384;48.112;18.418;2023-05-14T08:09:18;13.50;83.80
24260;DHT22;12384;48.112;18.418;2023-05-14T08:11:46;13.50;82.90
24260;DHT22;12384;48.112;18.418;2023-05-14T08:14:15;13.50;82.60
24260;DHT22;12384;48.112;18.418;2023-05-14T08:16:44;13.50;82.50
24260;DHT22;12384;48.112;18.418;2023-05-14T08:19:14;13.50;82.90
24260;DHT22;12384;48.112;18.418;2023-05-14T08:21:43;13.60;83.80
24260;DHT22;12384;48.112;18.418;2023-05-14T08:24:11;13.60;84.50
24260;DHT22;12384;48.112;18.418;2023-05-14T08:26:40;13.60;84.80
24260;DHT22;12384;48.112;18.418;2023-05-14T08:29:08;13.70;84.20
24260;DHT22;12384;48.112;18.418;2023-05-14T08:31:40;13.70;83.70
24260;DHT22;12384;48.112;18.418;2023-05-14T08:34:10;13.70;83.20
24260;DHT22;12384;48.112;18.418;2023-05-14T08:36:38;13.70;82.70
24260;DHT22;12384;48.112;18.418;2023-05-14T08:39:07;13.70;82.10
24260;DHT22;12384;48.112;18.418;2023-05-14T08:41:35;13.70;82.40
24260;DHT22;12384;48.112;18.418;2023-05-14T08:44:07;13.70;83.40
24260;DHT22;12384;48.112;18.418;2023-05-14T08:46:40;13.70;83.70
24260;DHT22;12384;48.112;18.418;2023-05-14T08:49:20;13.80;84.40
24260;DHT22;12384;48.112;18.418;2023-05-14T08:51:52;13.80;84.90
24260;DHT22;12384;48.112;18.418;2023-05-14T08:54:21;13.90;84.70
24260;DHT22;12384;48.112;18.418;2023-05-14T08:56:51;13.90;84.20
24260;DHT22;12384;48.112;18.418;2023-05-14T08:59:19;14.00;83.70
24260;DHT22;12384;48.112;18.418;2023-05-14T09:01:51;14.00;83.80
24260;DHT22;12384;48.112;18.418;2023-05-14T09:04:23;14.10;85.10
24260;DHT22;12384;48.112;18.418;2023-05-14T09:06:53;14.20;84.40
24260;DHT22;12384;48.112;18.418;2023-05-14T09:09:22;14.30;84.10
24260;DHT22;12384;48.112;18.418;2023-05-14T09:11:51;14.40;84.80
24260;DHT22;12384;48.112;18.418;2023-05-14T09:14:21;14.60;84.60
24260;DHT22;12384;48.112;18.418;2023-05-14T09:16:50;14.70;84.70
24260;DHT22;12384;48.112;18.418;2023-05-14T09:19:21;14.80;83.30
24260;DHT22;12384;48.112;18.418;2023-05-14T09:21:49;14.90;82.20
24260;DHT22;12384;48.112;18.418;2023-05-14T09:24:19;15.00;82.30
24260;DHT22;12384;48.112;18.418;2023-05-14T09:26:49;15.20;82.70
24260;DHT22;12384;48.112;18.418;2023-05-14T09:29:19;15.20;81.20
24260;DHT22;12384;48.112;18.418;2023-05-14T09:31:49;15.30;80.60
24260;DHT22;12384;48.112;18.418;2023-05-14T09:34:25;15.40;79.40
24260;DHT22;12384;48.112;18.418;2023-05-14T09:36:55;15.40;77.40
24260;DHT22;12384;48.112;18.418;2023-05-14T09:39:24;15.40;75.50
24260;DHT22;12384;48.112;18.418;2023-05-14T09:41:53;15.40;73.90
24260;DHT22;12384;48.112;18.418;2023-05-14T09:44:23;15.30;72.80
24260;DHT22;12384;48.112;18.418;2023-05-14T09:46:52;15.30;72.30
24260;DHT22;12384;48.112;18.418;2023-05-14T09:49:21;15.30;72.10
24260;DHT22;12384;48.112;18.418;2023-05-14T09:51:51;15.20;71.70
24260;DHT22;12384;48.112;18.418;2023-05-14T09:54:19;15.20;71.80
24260;DHT22;12384;48.112;18.418;2023-05-14T09:56:48;15.10;71.90
24260;DHT22;12384;48.112;18.418;2023-05-14T09:59:21;15.10;72.10
24260;DHT22;12384;48.112;18.418;2023-05-14T10:01:51;15.10;72.50
24260;DHT22;12384;48.112;18.418;2023-05-14T10:04:21;15.10;73.00
24260;DHT22;12384;48.112;18.418;2023-05-14T10:06:52;15.10;73.40
24260;DHT22;12384;48.112;18.418;2023-05-14T10:09:23;15.10;73.70
24260;DHT22;12384;48.112;18.418;2023-05-14T10:11:52;15.10;74.20
24260;DHT22;12384;48.112;18.418;2023-05-14T10:14:30;15.10;74.30
24260;DHT22;12384;48.112;18.418;2023-05-14T10:17:01;15.20;74.50
24260;DHT22;12384;48.112;18.418;2023-05-14T10:19:32;15.20;74.80
24260;DHT22;12384;48.112;18.418;2023-05-14T10:22:06;15.20;74.80
24260;DHT22;12384;48.112;18.418;2023-05-14T10:24:35;15.20;74.70
24260;DHT22;12384;48.112;18.418;2023-05-14T10:27:05;15.20;75.10
24260;DHT22;12384;48.112;18.418;2023-05-14T10:29:35;15.20;75.00
24260;DHT22;12384;48.112;18.418;2023-05-14T10:32:05;15.10;74.80
24260;DHT22;12384;48.112;18.418;2023-05-14T10:34:35;15.10;75.10
24260;DHT22;12384;48.112;18.418;2023-05-14T10:37:13;15.10;75.10
24260;DHT22;12384;48.112;18.418;2023-05-14T10:39:44;15.10;75.20
24260;DHT22;12384;48.112;18.418;2023-05-14T10:42:16;15.00;75.20
24260;DHT22;12384;48.112;18.418;2023-05-14T10:44:50;15.00;75.50
24260;DHT22;12384;48.112;18.418;2023-05-14T10:47:20;14.90;76.10
24260;DHT22;12384;48.112;18.418;2023-05-14T10:49:53;15.00;77.20
24260;DHT22;12384;48.112;18.418;2023-05-14T10:52:23;14.90;78.30
24260;DHT22;12384;48.112;18.418;2023-05-14T10:54:54;14.90;79.70
24260;DHT22;12384;48.112;18.418;2023-05-14T10:57:24;15.00;81.20
24260;DHT22;12384;48.112;18.418;2023-05-14T10:59:54;15.10;82.20
24260;DHT22;12384;48.112;18.418;2023-05-14T11:02:25;15.10;81.80
24260;DHT22;12384;48.112;18.418;2023-05-14T11:04:59;15.10;80.90
24260;DHT22;12384;48.112;18.418;2023-05-14T11:07:32;15.10;79.60
24260;DHT22;12384;48.112;18.418;2023-05-14T11:10:05;14.90;79.00
24260;DHT22;12384;48.112;18.418;2023-05-14T11:12:36;14.90;79.60
24260;DHT22;12384;48.112;18.418;2023-05-14T11:15:07;14.80;80.30
24260;DHT22;12384;48.112;18.418;2023-05-14T11:17:37;14.70;81.10
24260;DHT22;12384;48.112;18.418;2023-05-14T11:20:07;14.60;81.90
24260;DHT22;12384;48.112;18.418;2023-05-14T11:22:39;14.60;83.00
24260;DHT22;12384;48.112;18.418;2023-05-14T11:25:08;14.50;83.50
24260;DHT22;12384;48.112;18.418;2023-05-14T11:27:38;14.50;84.50
24260;DHT22;12384;48.112;18.418;2023-05-14T11:30:12;14.40;85.50
24260;DHT22;12384;48.112;18.418;2023-05-14T11:32:41;14.40;86.70
24260;DHT22;12384;48.112;18.418;2023-05-14T11:35:10;14.40;87.80
24260;DHT22;12384;48.112;18.418;2023-05-14T11:37:40;14.40;88.90
24260;DHT22;12384;48.112;18.418;2023-05-14T11:40:14;14.30;89.70
24260;DHT22;12384;48.112;18.418;2023-05-14T11:42:43;14.30;90.20
24260;DHT22;12384;48.112;18.418;2023-05-14T11:45:12;14.30;90.70
24260;DHT22;12384;48.112;18.418;2023-05-14T11:47:41;14.20;91.00
24260;DHT22;12384;48.112;18.418;2023-05-14T11:50:10;14.20;91.50
24260;DHT22;12384;48.112;18.418;2023-05-14T11:52:40;14.10;92.00
24260;DHT22;12384;48.112;18.418;2023-05-14T11:55:10;14.10;92.60
24260;DHT22;12384;48.112;18.418;2023-05-14T11:57:39;14.10;93.20
24260;DHT22;12384;48.112;18.418;2023-05-14T12:00:09;14.10;93.80
24260;DHT22;12384;48.112;18.418;2023-05-14T12:02:39;14.10;94.40
24260;DHT22;12384;48.112;18.418;2023-05-14T12:05:12;14.10;94.80
24260;DHT22;12384;48.112;18.418;2023-05-14T12:07:43;14.10;95.40
24260;DHT22;12384;48.112;18.418;2023-05-14T12:10:12;14.00;96.00
24260;DHT22;12384;48.112;18.418;2023-05-14T12:12:44;14.00;96.40
24260;DHT22;12384;48.112;18.418;2023-05-14T12:15:15;14.00;97.00
24260;DHT22;12384;48.112;18.418;2023-05-14T12:17:48;14.00;97.50
24260;DHT22;12384;48.112;18.418;2023-05-14T12:20:18;14.00;98.00
24260;DHT22;12384;48.112;18.418;2023-05-14T12:22:48;13.90;98.30
24260;DHT22;12384;48.112;18.418;2023-05-14T12:25:16;14.00;98.70
24260;DHT22;12384;48.112;18.418;2023-05-14T12:27:45;13.90;99.00
24260;DHT22;12384;48.112;18.418;2023-05-14T12:30:13;13.90;99.30
24260;DHT22;12384;48.112;18.418;2023-05-14T12:33:00;13.90;99.70
24260;DHT22;12384;48.112;18.418;2023-05-14T12:35:28;14.00;99.90
24260;DHT22;12384;48.112;18.418;2023-05-14T12:37:58;14.00;99.90
24260;DHT22;12384;48.112;18.418;2023-05-14T12:40:26;13.90;99.90
24260;DHT22;12384;48.112;18.418;2023-05-14T12:42:55;14.00;99.90
24260;DHT22;12384;48.112;18.418;2023-05-14T12:45:23;14.00;99.90
24260;DHT22;12384;48.112;18.418;2023-05-14T12:47:52;14.00;99.90
24260;DHT22;12384;48.112;18.418;2023-05-14T12:50:21;14.00;99.90
24260;DHT22;12384;48.112;18.418;2023-05-14T12:52:49;14.00;99.90
24260;DHT22;12384;48.112;18.418;2023-05-14T12:55:20;14.00;99.90
24260;DHT22;12384;48.112;18.418;2023-05-14T12:57:49;14.00;99.90
24260;DHT22;12384;48.112;18.418;2023-05-14T13:00:18;14.00;99.90
24260;DHT22;12384;48.112;18.418;2023-05-14T13:02:46;14.00;99.90
24260;DHT22;12384;48.112;18.418;2023-05-14T13:05:15;14.00;99.90
24260;DHT22;12384;48.112;18.418;2023-05-14T13:07:43;14.00;99.90
24260;DHT22;12384;48.112;18.418;2023-05-14T13:10:11;14.00;99.90
24260;DHT22;12384;48.112;18.418;2023-05-14T13:12:41;14.00;99.90
24260;DHT22;12384;48.112;18.418;2023-05-14T13:15:10;14.00;99.90
24260;DHT22;12384;48.112;18.418;2023-05-14T13:17:38;14.00;99.90
24260;DHT22;12384;48.112;18.418;2023-05-14T13:20:08;14.00;99.90
24260;DHT22;12384;48.112;18.418;2023-05-14T13:22:36;14.00;99.90
24260;DHT22;12384;48.112;18.418;2023-05-14T13:25:06;14.00;99.90
24260;DHT22;12384;48.112;18.418;2023-05-14T13:27:35;14.00;99.90
24260;DHT22;12384;48.112;18.418;2023-05-14T13:30:05;13.90;99.90
24260;DHT22;12384;48.112;18.418;2023-05-14T13:32:34;14.00;99.90
24260;DHT22;12384;48.112;18.418;2023-05-14T13:35:03;13.90;99.90
24260;DHT22;12384;48.112;18.418;2023-05-14T13:37:31;13.90;99.90
24260;DHT22;12384;48.112;18.418;2023-05-14T13:40:00;13.90;99.90
24260;DHT22;12384;48.112;18.418;2023-05-14T13:42:28;13.90;99.90
24260;DHT22;12384;48.112;18.418;2023-05-14T13:44:57;13.90;99.90
24260;DHT22;12384;48.112;18.418;2023-05-14T13:47:27;13.90;99.90
24260;DHT22;12384;48.112;18.418;2023-05-14T13:49:55;13.90;99.90
24260;DHT22;12384;48.112;18.418;2023-05-14T13:52:24;13.80;99.90
24260;DHT22;12384;48.112;18.418;2023-05-14T13:54:52;13.80;99.90
24260;DHT22;12384;48.112;18.418;2023-05-14T13:57:21;13.80;99.90
24260;DHT22;12384;48.112;18.418;2023-05-14T13:59:50;13.80;99.90
24260;DHT22;12384;48.112;18.418;2023-05-14T14:02:18;13.70;99.90
24260;DHT22;12384;48.112;18.418;2023-05-14T14:04:48;13.70;99.90
24260;DHT22;12384;48.112;18.418;2023-05-14T14:07:16;13.70;99.90
24260;DHT22;12384;48.112;18.418;2023-05-14T14:09:45;13.70;99.90
24260;DHT22;12384;48.112;18.418;2023-05-14T14:12:13;13.70;99.90
24260;DHT22;12384;48.112;18.418;2023-05-14T14:14:42;13.60;99.90
24260;DHT22;12384;48.112;18.418;2023-05-14T14:17:10;13.60;99.90
24260;DHT22;12384;48.112;18.418;2023-05-14T14:19:39;13.60;99.90
24260;DHT22;12384;48.112;18.418;2023-05-14T14:22:09;13.60;99.90
24260;DHT22;12384;48.112;18.418;2023-05-14T14:24:38;13.60;99.90
24260;DHT22;12384;48.112;18.418;2023-05-14T14:27:07;13.60;99.90
24260;DHT22;12384;48.112;18.418;2023-05-14T14:29:36;13.60;99.90
24260;DHT22;12384;48.112;18.418;2023-05-14T14:32:05;13.60;99.90
24260;DHT22;12384;48.112;18.418;2023-05-14T14:34:34;13.60;99.90
24260;DHT22;12384;48.112;18.418;2023-05-14T14:37:02;13.60;99.90
24260;DHT22;12384;48.112;18.418;2023-05-14T14:39:32;13.50;99.90
24260;DHT22;12384;48.112;18.418;2023-05-14T14:42:00;13.60;99.90
24260;DHT22;12384;48.112;18.418;2023-05-14T14:44:29;13.50;99.90
24260;DHT22;12384;48.112;18.418;2023-05-14T14:46:57;13.50;99.90
24260;DHT22;12384;48.112;18.418;2023-05-14T14:49:25;13.50;99.90
24260;DHT22;12384;48.112;18.418;2023-05-14T14:51:54;13.50;99.90
24260;DHT22;12384;48.112;18.418;2023-05-14T14:54:23;13.50;99.90
24260;DHT22;12384;48.112;18.418;2023-05-14T14:56:53;13.50;99.90
24260;DHT22;12384;48.112;18.418;2023-05-14T14:59:21;13.50;99.90
24260;DHT22;12384;48.112;18.418;2023-05-14T15:01:50;13.50;99.90
24260;DHT22;12384;48.112;18.418;2023-05-14T15:04:18;13.50;99.90
24260;DHT22;12384;48.112;18.418;2023-05-14T15:06:47;13.50;99.90
24260;DHT22;12384;48.112;18.418;2023-05-14T15:09:15;13.50;99.90
24260;DHT22;12384;48.112;18.418;2023-05-14T15:11:44;13.50;99.90
24260;DHT22;12384;48.112;18.418;2023-05-14T15:14:14;13.50;99.90
24260;DHT22;12384;48.112;18.418;2023-05-14T15:16:42;13.50;99.90
24260;DHT22;12384;48.112;18.418;2023-05-14T15:19:11;13.40;99.90
24260;DHT22;12384;48.112;18.418;2023-05-14T15:21:39;13.40;99.90
24260;DHT22;12384;48.112;18.418;2023-05-14T15:24:10;13.40;99.90
24260;DHT22;12384;48.112;18.418;2023-05-14T15:26:39;13.40;99.90
24260;DHT22;12384;48.112;18.418;2023-05-14T15:29:08;13.30;99.90
24260;DHT22;12384;48.112;18.418;2023-05-14T15:31:38;13.30;99.90